This is the latest recevied weather packets stored in our database for station/object SQ6XL-13. If no packets are shown the sender has not sent any weather packets the latest 10 day(s).
| Time | Temp. | Humidity | Pressure | Rain* | Wind** | Luminosity | Snow |
|---|---|---|---|---|---|---|---|
| 1777714007 | 20.56° C | 38% | 1025 hPa | 0 mm | - | - | - |
| 1777713511 | 20.56° C | 39% | 1025.1 hPa | 0 mm | - | - | - |
| 1777713022 | 20.56° C | 40% | 1025 hPa | 0 mm | - | - | - |
| 1777712542 | 20.56° C | 40% | 1025.1 hPa | 0 mm | - | - | - |
| 1777712047 | 20° C | 39% | 1025.3 hPa | 0 mm | - | - | - |
| 1777711542 | 20° C | 40% | 1025.3 hPa | 0 mm | - | - | - |
| 1777711012 | 20.56° C | 39% | 1025.3 hPa | 0 mm | - | - | - |
| 1777710421 | 20.56° C | 40% | 1025.3 hPa | 0 mm | - | - | - |
| 1777709857 | 20.56° C | 41% | 1025.3 hPa | 0 mm | - | - | - |
| 1777709322 | 20.56° C | 40% | 1025.4 hPa | 0 mm | - | - | - |
| 1777708797 | 22.22° C | 40% | 1025.3 hPa | 0 mm | - | - | - |
| 1777708226 | 22.22° C | 41% | 1025.4 hPa | 0 mm | - | - | - |
| 1777707671 | 21.67° C | 43% | 1025.5 hPa | 0 mm | - | - | - |
| 1777707142 | 21.67° C | 42% | 1025.4 hPa | 0 mm | - | - | - |
| 1777706602 | 20° C | 46% | 1025.4 hPa | 0 mm | - | - | - |
| 1777706107 | 20° C | 48% | 1025.3 hPa | 0 mm | - | - | - |
| 1777705562 | 19.44° C | 52% | 1025.4 hPa | 0 mm | - | - | - |
| 1777705051 | 18.33° C | 56% | 1025.5 hPa | 0 mm | - | - | - |
| 1777704487 | 17.78° C | 59% | 1025.4 hPa | 0 mm | - | - | - |
| 1777703897 | 17.22° C | 62% | 1025.3 hPa | 0 mm | - | - | - |
| 1777703337 | 16.11° C | 67% | 1025.4 hPa | 0 mm | - | - | - |
| 1777702842 | 15.56° C | 69% | 1025.3 hPa | 0 mm | - | - | - |
| 1777702311 | 14.44° C | 73% | 1025.3 hPa | 0 mm | - | - | - |
| 1777701762 | 13.33° C | 76% | 1025.4 hPa | 0 mm | - | - | - |
| 1777701217 | 12.22° C | 83% | 1025.3 hPa | 0 mm | - | - | - |
* Rain latest hour (hover to see other rain measurements)
** Current wind speed in m/s (hover to see current wind gust speed)